TCA7378 TKPK-SVMG
Flight info
| Callsign | TCA7378 |
|---|---|
| Flight time | 1h 15m |
| Altitude | 42000 |
| Route | KIPUR1 ANASU DCT GEECE DCT BAHIA EKONU |
| Aircraft | C25B/M-SDE2E3FGHRWXY/LB1 |
Departure
| Time | 2026-05-05 20:51 |
|---|---|
| Airport | Robert L. Bradshaw International Airport (TKPK) |
Arrival
| Time | 2026-05-05 22:06 |
|---|---|
| Airport | Del Caribe Santiago Mariño International Airport (SVMG) |
| Time | Latitude | Longitude | Altitude | Speed | Heading |
|---|---|---|---|---|---|
| 2026-05-05 20:43 | 17.31203 | -62.71376 | 155 ft | 0 kts | 322° |
| 2026-05-05 20:48 | 17.31203 | -62.71377 | 155 ft | 0 kts | 322° |
| 2026-05-05 20:48 | 17.31207 | -62.71380 | 155 ft | 4 kts | 313° |
| 2026-05-05 20:48 | 17.31234 | -62.71468 | 155 ft | 15 kts | 253° |
| 2026-05-05 20:48 | 17.31174 | -62.71563 | 155 ft | 16 kts | 227° |
| 2026-05-05 20:49 | 17.31086 | -62.71657 | 155 ft | 19 kts | 225° |
| 2026-05-05 20:49 | 17.30995 | -62.71762 | 155 ft | 20 kts | 236° |
| 2026-05-05 20:49 | 17.30917 | -62.71886 | 155 ft | 21 kts | 236° |
| 2026-05-05 20:49 | 17.30839 | -62.72010 | 156 ft | 21 kts | 237° |
| 2026-05-05 20:50 | 17.30758 | -62.72136 | 158 ft | 21 kts | 236° |
| 2026-05-05 20:50 | 17.30718 | -62.72278 | 164 ft | 20 kts | 266° |
| 2026-05-05 20:50 | 17.30709 | -62.72421 | 171 ft | 19 kts | 265° |
| 2026-05-05 20:50 | 17.30730 | -62.72484 | 171 ft | 10 kts | 56° |
| 2026-05-05 20:51 | 17.30933 | -62.72163 | 170 ft | 112 kts | 57° |
| 2026-05-05 20:51 | 17.31501 | -62.71266 | 807 ft | 168 kts | 58° |
| 2026-05-05 20:51 | 17.32206 | -62.70135 | 2070 ft | 201 kts | 59° |
| 2026-05-05 20:51 | 17.33003 | -62.68832 | 3374 ft | 220 kts | 58° |
| 2026-05-05 20:52 | 17.33892 | -62.67520 | 4512 ft | 227 kts | 59° |
| 2026-05-05 20:52 | 17.34758 | -62.66119 | 5696 ft | 232 kts | 60° |
| 2026-05-05 20:52 | 17.35653 | -62.64686 | 6830 ft | 238 kts | 60° |
| 2026-05-05 20:52 | 17.36281 | -62.63086 | 7857 ft | 240 kts | 78° |
| 2026-05-05 20:53 | 17.36511 | -62.61340 | 8862 ft | 245 kts | 92° |
| 2026-05-05 20:53 | 17.36258 | -62.59563 | 9816 ft | 251 kts | 102° |
| 2026-05-05 20:53 | 17.35950 | -62.57739 | 10719 ft | 258 kts | 99° |
| 2026-05-05 20:53 | 17.35626 | -62.55869 | 11613 ft | 264 kts | 101° |
| 2026-05-05 20:54 | 17.35289 | -62.53987 | 12541 ft | 269 kts | 100° |
| 2026-05-05 20:54 | 17.34939 | -62.52051 | 13478 ft | 272 kts | 101° |
| 2026-05-05 20:54 | 17.34257 | -62.50191 | 14334 ft | 279 kts | 119° |
| 2026-05-05 20:54 | 17.33104 | -62.48535 | 15160 ft | 286 kts | 133° |
| 2026-05-05 20:55 | 17.31499 | -62.47266 | 15985 ft | 293 kts | 149° |
| 2026-05-05 20:55 | 17.29592 | -62.46483 | 16782 ft | 298 kts | 166° |
| 2026-05-05 20:55 | 17.27586 | -62.45866 | 17608 ft | 303 kts | 163° |
| 2026-05-05 20:55 | 17.25565 | -62.45201 | 18423 ft | 308 kts | 164° |
| 2026-05-05 20:56 | 17.23497 | -62.44558 | 19264 ft | 311 kts | 165° |
| 2026-05-05 20:56 | 17.21453 | -62.43916 | 20082 ft | 313 kts | 164° |
| 2026-05-05 20:56 | 17.19374 | -62.43211 | 20872 ft | 315 kts | 161° |
| 2026-05-05 20:56 | 17.17290 | -62.42466 | 21670 ft | 318 kts | 162° |
| 2026-05-05 20:57 | 17.15184 | -62.41753 | 22442 ft | 319 kts | 162° |
| 2026-05-05 20:57 | 17.13066 | -62.41021 | 23159 ft | 322 kts | 162° |
| 2026-05-05 20:57 | 17.10932 | -62.40274 | 23852 ft | 325 kts | 162° |
| 2026-05-05 20:57 | 17.08780 | -62.39522 | 24539 ft | 327 kts | 162° |
| 2026-05-05 20:58 | 17.06614 | -62.38761 | 25201 ft | 330 kts | 162° |
| 2026-05-05 20:58 | 17.04456 | -62.38014 | 25825 ft | 333 kts | 162° |
| 2026-05-05 20:58 | 17.02254 | -62.37244 | 26431 ft | 336 kts | 162° |
| 2026-05-05 20:58 | 17.00025 | -62.36472 | 27056 ft | 338 kts | 162° |
| 2026-05-05 20:59 | 16.97719 | -62.35950 | 27603 ft | 342 kts | 175° |
| 2026-05-05 20:59 | 16.95335 | -62.35988 | 28172 ft | 345 kts | 186° |
| 2026-05-05 20:59 | 16.92987 | -62.36572 | 28725 ft | 350 kts | 198° |
| 2026-05-05 20:59 | 16.90745 | -62.37586 | 29253 ft | 353 kts | 204° |
| 2026-05-05 21:00 | 16.88493 | -62.38635 | 29791 ft | 356 kts | 203° |
| 2026-05-05 21:00 | 16.86218 | -62.39680 | 30395 ft | 355 kts | 203° |
| 2026-05-05 21:00 | 16.84076 | -62.40666 | 31803 ft | 327 kts | 204° |
| 2026-05-05 21:00 | 16.82074 | -62.41598 | 33132 ft | 308 kts | 204° |
| 2026-05-05 21:01 | 16.80115 | -62.42508 | 33800 ft | 309 kts | 204° |
| 2026-05-05 21:01 | 16.78142 | -62.43415 | 34427 ft | 310 kts | 204° |
| 2026-05-05 21:01 | 16.76160 | -62.44333 | 34997 ft | 314 kts | 205° |
| 2026-05-05 21:01 | 16.74152 | -62.45263 | 35497 ft | 318 kts | 205° |
| 2026-05-05 21:02 | 16.72110 | -62.46206 | 35952 ft | 324 kts | 206° |
| 2026-05-05 21:02 | 16.70058 | -62.47155 | 36380 ft | 330 kts | 206° |
| 2026-05-05 21:02 | 16.67949 | -62.48129 | 36867 ft | 333 kts | 206° |
| 2026-05-05 21:02 | 16.65821 | -62.49112 | 37371 ft | 336 kts | 206° |
| 2026-05-05 21:03 | 16.63681 | -62.50100 | 37847 ft | 338 kts | 206° |
| 2026-05-05 21:03 | 16.61519 | -62.51096 | 38340 ft | 341 kts | 206° |
| 2026-05-05 21:03 | 16.59346 | -62.52102 | 38812 ft | 343 kts | 206° |
| 2026-05-05 21:03 | 16.57158 | -62.53112 | 39261 ft | 345 kts | 206° |
| 2026-05-05 21:04 | 16.54955 | -62.54127 | 39712 ft | 347 kts | 206° |
| 2026-05-05 21:04 | 16.52740 | -62.55149 | 40131 ft | 349 kts | 206° |
| 2026-05-05 21:04 | 16.50541 | -62.56162 | 40544 ft | 351 kts | 206° |
| 2026-05-05 21:04 | 16.48303 | -62.57196 | 40950 ft | 353 kts | 206° |
| 2026-05-05 21:05 | 16.46053 | -62.58231 | 41346 ft | 354 kts | 206° |
| 2026-05-05 21:05 | 16.43794 | -62.59273 | 41728 ft | 356 kts | 206° |
| 2026-05-05 21:05 | 16.41522 | -62.60319 | 42061 ft | 359 kts | 206° |
| 2026-05-05 21:05 | 16.39200 | -62.61390 | 42077 ft | 371 kts | 206° |
| 2026-05-05 21:06 | 16.36808 | -62.62492 | 42086 ft | 382 kts | 206° |
| 2026-05-05 21:06 | 16.34345 | -62.63625 | 42086 ft | 392 kts | 206° |
| 2026-05-05 21:06 | 16.29318 | -62.65936 | 42083 ft | 399 kts | 206° |
| 2026-05-05 21:07 | 16.24235 | -62.68272 | 42083 ft | 400 kts | 206° |
| 2026-05-05 21:07 | 16.19144 | -62.70613 | 42084 ft | 400 kts | 206° |
| 2026-05-05 21:08 | 16.14045 | -62.72955 | 42082 ft | 401 kts | 206° |
| 2026-05-05 21:08 | 16.08980 | -62.75280 | 42085 ft | 401 kts | 206° |
| 2026-05-05 21:09 | 16.03867 | -62.77626 | 42061 ft | 402 kts | 206° |
| 2026-05-05 21:09 | 15.98750 | -62.79973 | 42065 ft | 402 kts | 206° |
| 2026-05-05 21:10 | 15.93628 | -62.82320 | 42062 ft | 403 kts | 206° |
| 2026-05-05 21:10 | 15.88533 | -62.84654 | 42063 ft | 403 kts | 206° |
| 2026-05-05 21:11 | 15.83399 | -62.87004 | 42066 ft | 403 kts | 206° |
| 2026-05-05 21:11 | 15.78259 | -62.89356 | 42054 ft | 404 kts | 206° |
| 2026-05-05 21:12 | 15.73119 | -62.91705 | 42055 ft | 404 kts | 206° |
| 2026-05-05 21:12 | 15.68007 | -62.94041 | 42055 ft | 404 kts | 206° |
| 2026-05-05 21:13 | 15.62864 | -62.96390 | 42057 ft | 403 kts | 206° |
| 2026-05-05 21:13 | 15.57728 | -62.98734 | 42045 ft | 403 kts | 206° |
| 2026-05-05 21:14 | 15.52597 | -63.01075 | 42045 ft | 403 kts | 206° |
| 2026-05-05 21:14 | 15.47504 | -63.03397 | 42044 ft | 402 kts | 206° |
| 2026-05-05 21:15 | 15.42382 | -63.05731 | 42044 ft | 402 kts | 206° |
| 2026-05-05 21:15 | 15.37262 | -63.08063 | 42043 ft | 402 kts | 206° |
| 2026-05-05 21:16 | 15.32148 | -63.10391 | 42034 ft | 402 kts | 206° |
| 2026-05-05 21:16 | 15.27056 | -63.12708 | 42015 ft | 402 kts | 206° |
| 2026-05-05 21:17 | 15.21931 | -63.15039 | 42015 ft | 402 kts | 206° |
| 2026-05-05 21:17 | 15.16807 | -63.17368 | 42015 ft | 402 kts | 206° |
| 2026-05-05 21:18 | 15.11685 | -63.19694 | 42015 ft | 402 kts | 206° |
| 2026-05-05 21:18 | 15.06598 | -63.22004 | 42015 ft | 402 kts | 206° |
| 2026-05-05 21:19 | 15.01477 | -63.24329 | 42014 ft | 402 kts | 206° |
| 2026-05-05 21:19 | 14.96135 | -63.26023 | 42008 ft | 403 kts | 197° |
| 2026-05-05 21:20 | 14.90711 | -63.27514 | 42009 ft | 403 kts | 197° |
| 2026-05-05 21:20 | 14.85309 | -63.28959 | 42010 ft | 404 kts | 197° |
| 2026-05-05 21:21 | 14.79872 | -63.30428 | 42010 ft | 404 kts | 197° |
| 2026-05-05 21:21 | 14.74437 | -63.31891 | 42010 ft | 404 kts | 197° |
| 2026-05-05 21:22 | 14.68987 | -63.33358 | 42011 ft | 404 kts | 197° |
| 2026-05-05 21:22 | 14.63577 | -63.34813 | 42011 ft | 404 kts | 197° |
| 2026-05-05 21:23 | 14.58129 | -63.36278 | 42011 ft | 405 kts | 197° |
| 2026-05-05 21:23 | 14.52682 | -63.37742 | 42012 ft | 405 kts | 197° |
| 2026-05-05 21:24 | 14.47230 | -63.39206 | 42012 ft | 405 kts | 196° |
| 2026-05-05 21:24 | 14.41814 | -63.40660 | 42012 ft | 405 kts | 196° |
| 2026-05-05 21:25 | 14.36360 | -63.42123 | 42012 ft | 405 kts | 196° |
| 2026-05-05 21:25 | 14.30906 | -63.43585 | 42012 ft | 405 kts | 196° |
| 2026-05-05 21:26 | 14.25451 | -63.45047 | 42013 ft | 405 kts | 196° |
| 2026-05-05 21:26 | 14.20027 | -63.46500 | 42013 ft | 405 kts | 196° |
| 2026-05-05 21:27 | 14.14571 | -63.47961 | 42013 ft | 405 kts | 197° |
| 2026-05-05 21:27 | 14.09119 | -63.49421 | 42013 ft | 405 kts | 197° |
| 2026-05-05 21:28 | 14.03658 | -63.50882 | 42013 ft | 405 kts | 197° |
| 2026-05-05 21:28 | 13.98201 | -63.52342 | 42013 ft | 405 kts | 197° |
| 2026-05-05 21:29 | 13.92773 | -63.53792 | 42023 ft | 405 kts | 197° |
| 2026-05-05 21:29 | 13.87310 | -63.55252 | 42022 ft | 406 kts | 197° |
| 2026-05-05 21:30 | 13.81843 | -63.56712 | 42023 ft | 406 kts | 196° |
| 2026-05-05 21:30 | 13.76411 | -63.58162 | 42022 ft | 406 kts | 196° |
| 2026-05-05 21:31 | 13.70941 | -63.59621 | 42014 ft | 406 kts | 196° |
| 2026-05-05 21:31 | 13.65473 | -63.61078 | 42018 ft | 406 kts | 196° |
| 2026-05-05 21:32 | 13.59993 | -63.62538 | 42016 ft | 406 kts | 196° |
| 2026-05-05 21:32 | 13.54524 | -63.63995 | 42017 ft | 406 kts | 196° |
| 2026-05-05 21:33 | 13.49084 | -63.65443 | 42017 ft | 406 kts | 196° |
| 2026-05-05 21:33 | 13.43607 | -63.66900 | 42017 ft | 407 kts | 196° |
| 2026-05-05 21:34 | 13.38129 | -63.68357 | 42018 ft | 407 kts | 196° |
| 2026-05-05 21:34 | 13.32650 | -63.69813 | 42011 ft | 407 kts | 196° |
| 2026-05-05 21:35 | 13.27202 | -63.71261 | 42007 ft | 407 kts | 196° |
| 2026-05-05 21:35 | 13.21722 | -63.72717 | 42007 ft | 407 kts | 196° |
| 2026-05-05 21:36 | 13.16235 | -63.74173 | 42007 ft | 407 kts | 196° |
| 2026-05-05 21:36 | 13.10744 | -63.75631 | 41998 ft | 408 kts | 196° |
| 2026-05-05 21:37 | 13.05287 | -63.77078 | 41998 ft | 408 kts | 195° |
| 2026-05-05 21:37 | 12.99793 | -63.78535 | 41998 ft | 408 kts | 195° |
| 2026-05-05 21:38 | 12.94297 | -63.79991 | 41998 ft | 408 kts | 195° |
| 2026-05-05 21:38 | 12.88805 | -63.81446 | 41998 ft | 408 kts | 195° |
| 2026-05-05 21:39 | 12.83306 | -63.82902 | 41998 ft | 408 kts | 195° |
| 2026-05-05 21:39 | 12.77839 | -63.84348 | 41823 ft | 409 kts | 195° |
| 2026-05-05 21:40 | 12.75089 | -63.85078 | 41308 ft | 408 kts | 195° |
| 2026-05-05 21:40 | 12.72342 | -63.85803 | 40767 ft | 407 kts | 195° |
| 2026-05-05 21:40 | 12.69601 | -63.86528 | 40229 ft | 406 kts | 195° |
| 2026-05-05 21:40 | 12.66867 | -63.87253 | 39692 ft | 405 kts | 195° |
| 2026-05-05 21:41 | 12.64175 | -63.87961 | 39164 ft | 404 kts | 195° |
| 2026-05-05 21:41 | 12.61460 | -63.88679 | 38621 ft | 403 kts | 195° |
| 2026-05-05 21:41 | 12.58747 | -63.89397 | 38089 ft | 402 kts | 195° |
| 2026-05-05 21:41 | 12.56047 | -63.90113 | 37560 ft | 400 kts | 194° |
| 2026-05-05 21:42 | 12.53358 | -63.90821 | 37039 ft | 398 kts | 194° |
| 2026-05-05 21:42 | 12.50683 | -63.91523 | 36509 ft | 396 kts | 194° |
| 2026-05-05 21:42 | 12.48023 | -63.92230 | 35990 ft | 394 kts | 194° |
| 2026-05-05 21:42 | 12.45372 | -63.92930 | 35468 ft | 393 kts | 194° |
| 2026-05-05 21:43 | 12.42730 | -63.93623 | 34953 ft | 391 kts | 194° |
| 2026-05-05 21:43 | 12.40135 | -63.94309 | 34439 ft | 390 kts | 194° |
| 2026-05-05 21:43 | 12.37515 | -63.95004 | 33926 ft | 388 kts | 194° |
| 2026-05-05 21:43 | 12.34903 | -63.95688 | 33409 ft | 387 kts | 194° |
| 2026-05-05 21:44 | 12.32304 | -63.96375 | 32907 ft | 385 kts | 194° |
| 2026-05-05 21:44 | 12.29724 | -63.97054 | 32399 ft | 383 kts | 194° |
| 2026-05-05 21:44 | 12.27150 | -63.97734 | 31894 ft | 381 kts | 194° |
| 2026-05-05 21:44 | 12.24590 | -63.98409 | 31385 ft | 379 kts | 194° |
| 2026-05-05 21:45 | 12.22043 | -63.99078 | 30872 ft | 377 kts | 194° |
| 2026-05-05 21:45 | 12.19509 | -63.99743 | 30387 ft | 375 kts | 195° |
| 2026-05-05 21:45 | 12.17027 | -64.00402 | 29889 ft | 372 kts | 195° |
| 2026-05-05 21:45 | 12.14526 | -64.01058 | 29403 ft | 369 kts | 195° |
| 2026-05-05 21:46 | 12.12046 | -64.01711 | 28919 ft | 367 kts | 195° |
| 2026-05-05 21:46 | 12.09582 | -64.02358 | 28438 ft | 364 kts | 195° |
| 2026-05-05 21:46 | 12.07135 | -64.03005 | 27960 ft | 362 kts | 195° |
| 2026-05-05 21:46 | 12.04702 | -64.03643 | 27484 ft | 360 kts | 195° |
| 2026-05-05 21:47 | 12.02285 | -64.04278 | 27011 ft | 358 kts | 195° |
| 2026-05-05 21:47 | 11.99915 | -64.04903 | 26547 ft | 355 kts | 195° |
| 2026-05-05 21:47 | 11.97534 | -64.05528 | 26075 ft | 353 kts | 195° |
| 2026-05-05 21:47 | 11.95162 | -64.06152 | 25610 ft | 351 kts | 195° |
| 2026-05-05 21:48 | 11.92804 | -64.06770 | 25149 ft | 349 kts | 195° |
| 2026-05-05 21:48 | 11.90463 | -64.07388 | 24690 ft | 346 kts | 195° |
| 2026-05-05 21:48 | 11.88136 | -64.07996 | 24237 ft | 344 kts | 195° |
| 2026-05-05 21:48 | 11.85824 | -64.08608 | 23783 ft | 342 kts | 195° |
| 2026-05-05 21:49 | 11.83522 | -64.09209 | 23333 ft | 341 kts | 195° |
| 2026-05-05 21:49 | 11.82008 | -64.09609 | 23040 ft | 340 kts | 194° |
| 2026-05-05 21:49 | 11.79724 | -64.10206 | 22596 ft | 338 kts | 194° |
| 2026-05-05 21:49 | 11.77452 | -64.10802 | 22153 ft | 337 kts | 194° |
| 2026-05-05 21:50 | 11.74461 | -64.11591 | 21568 ft | 335 kts | 194° |
| 2026-05-05 21:50 | 11.72205 | -64.12180 | 21124 ft | 334 kts | 194° |
| 2026-05-05 21:50 | 11.69954 | -64.12771 | 20684 ft | 333 kts | 194° |
| 2026-05-05 21:50 | 11.67710 | -64.13360 | 20242 ft | 333 kts | 194° |
| 2026-05-05 21:51 | 11.65469 | -64.13949 | 19792 ft | 332 kts | 194° |
| 2026-05-05 21:51 | 11.63984 | -64.14338 | 19501 ft | 332 kts | 194° |
| 2026-05-05 21:51 | 11.61747 | -64.14924 | 19054 ft | 332 kts | 194° |
| 2026-05-05 21:51 | 11.59513 | -64.15511 | 18619 ft | 331 kts | 194° |
| 2026-05-05 21:52 | 11.54276 | -64.16209 | 17602 ft | 326 kts | 173° |
| 2026-05-05 21:52 | 11.52076 | -64.15721 | 17168 ft | 322 kts | 159° |
| 2026-05-05 21:52 | 11.49969 | -64.14957 | 16747 ft | 321 kts | 160° |
| 2026-05-05 21:53 | 11.48560 | -64.14510 | 16467 ft | 321 kts | 161° |
| 2026-05-05 21:53 | 11.46441 | -64.13811 | 16035 ft | 320 kts | 159° |
| 2026-05-05 21:53 | 11.44339 | -64.13083 | 15606 ft | 318 kts | 159° |
| 2026-05-05 21:53 | 11.42244 | -64.12364 | 15180 ft | 317 kts | 159° |
| 2026-05-05 21:54 | 11.40154 | -64.11656 | 14758 ft | 316 kts | 159° |
| 2026-05-05 21:54 | 11.38076 | -64.10952 | 14337 ft | 314 kts | 159° |
| 2026-05-05 21:54 | 11.36012 | -64.10253 | 13919 ft | 311 kts | 158° |
| 2026-05-05 21:54 | 11.33967 | -64.09547 | 13507 ft | 309 kts | 159° |
| 2026-05-05 21:55 | 11.31962 | -64.08873 | 13102 ft | 307 kts | 159° |
| 2026-05-05 21:55 | 11.29959 | -64.08193 | 12709 ft | 300 kts | 159° |
| 2026-05-05 21:55 | 11.28005 | -64.07535 | 12366 ft | 292 kts | 158° |
| 2026-05-05 21:55 | 11.26099 | -64.06877 | 11995 ft | 286 kts | 158° |
| 2026-05-05 21:56 | 11.23626 | -64.06043 | 11512 ft | 280 kts | 158° |
| 2026-05-05 21:56 | 11.21791 | -64.05418 | 11144 ft | 276 kts | 158° |
| 2026-05-05 21:56 | 11.20566 | -64.05000 | 10902 ft | 275 kts | 158° |
| 2026-05-05 21:56 | 11.18760 | -64.04389 | 10547 ft | 271 kts | 158° |
| 2026-05-05 21:57 | 11.16950 | -64.03995 | 10192 ft | 272 kts | 173° |
| 2026-05-05 21:57 | 11.15055 | -64.04045 | 9836 ft | 273 kts | 183° |
| 2026-05-05 21:57 | 11.13216 | -64.04553 | 9474 ft | 276 kts | 198° |
| 2026-05-05 21:57 | 11.11516 | -64.05468 | 9104 ft | 279 kts | 212° |
| 2026-05-05 21:58 | 11.10064 | -64.06787 | 8739 ft | 281 kts | 225° |
| 2026-05-05 21:58 | 11.08923 | -64.08410 | 8367 ft | 282 kts | 234° |
| 2026-05-05 21:58 | 11.07697 | -64.09949 | 7996 ft | 279 kts | 225° |
| 2026-05-05 21:58 | 11.06380 | -64.11394 | 7626 ft | 277 kts | 221° |
| 2026-05-05 21:59 | 11.04948 | -64.12660 | 7263 ft | 276 kts | 217° |
| 2026-05-05 21:59 | 11.03412 | -64.13814 | 6897 ft | 274 kts | 210° |
| 2026-05-05 21:59 | 11.01792 | -64.14827 | 6533 ft | 270 kts | 206° |
| 2026-05-05 21:59 | 11.00124 | -64.15654 | 6177 ft | 264 kts | 201° |
| 2026-05-05 22:00 | 10.98443 | -64.16336 | 5828 ft | 258 kts | 195° |
| 2026-05-05 22:00 | 10.96753 | -64.16849 | 5486 ft | 247 kts | 191° |
| 2026-05-05 22:00 | 10.95121 | -64.17208 | 5157 ft | 234 kts | 186° |
| 2026-05-05 22:00 | 10.93544 | -64.17433 | 4854 ft | 224 kts | 181° |
| 2026-05-05 22:01 | 10.92016 | -64.17535 | 4561 ft | 216 kts | 178° |
| 2026-05-05 22:01 | 10.90552 | -64.17523 | 4294 ft | 212 kts | 173° |
| 2026-05-05 22:01 | 10.89119 | -64.17305 | 3994 ft | 205 kts | 152° |
| 2026-05-05 22:01 | 10.88071 | -64.16395 | 3745 ft | 196 kts | 124° |
| 2026-05-05 22:02 | 10.87629 | -64.15140 | 3495 ft | 189 kts | 89° |
| 2026-05-05 22:02 | 10.87812 | -64.13825 | 3250 ft | 187 kts | 81° |
| 2026-05-05 22:02 | 10.88035 | -64.12533 | 3080 ft | 180 kts | 78° |
| 2026-05-05 22:02 | 10.88297 | -64.11317 | 2844 ft | 174 kts | 79° |
| 2026-05-05 22:03 | 10.88520 | -64.10133 | 2602 ft | 171 kts | 78° |
| 2026-05-05 22:03 | 10.88778 | -64.08953 | 2360 ft | 170 kts | 78° |
| 2026-05-05 22:03 | 10.88998 | -64.07769 | 2117 ft | 170 kts | 79° |
| 2026-05-05 22:03 | 10.89256 | -64.06591 | 1875 ft | 170 kts | 77° |
| 2026-05-05 22:04 | 10.89486 | -64.05399 | 1631 ft | 172 kts | 79° |
| 2026-05-05 22:04 | 10.89727 | -64.04206 | 1389 ft | 170 kts | 77° |
| 2026-05-05 22:04 | 10.89948 | -64.03146 | 1174 ft | 136 kts | 79° |
| 2026-05-05 22:04 | 10.90116 | -64.02274 | 991 ft | 118 kts | 78° |
| 2026-05-05 22:05 | 10.90286 | -64.01491 | 823 ft | 110 kts | 78° |
| 2026-05-05 22:05 | 10.90421 | -64.00746 | 674 ft | 107 kts | 79° |
| 2026-05-05 22:05 | 10.90588 | -64.00017 | 526 ft | 105 kts | 77° |
| 2026-05-05 22:05 | 10.90715 | -63.99293 | 379 ft | 104 kts | 81° |
| 2026-05-05 22:06 | 10.90870 | -63.98576 | 223 ft | 104 kts | 78° |
| 2026-05-05 22:06 | 10.91019 | -63.97854 | 74 ft | 104 kts | 78° |
| 2026-05-05 22:06 | 10.91145 | -63.97232 | 65 ft | 61 kts | 78° |
| 2026-05-05 22:06 | 10.91208 | -63.97122 | 60 ft | 10 kts | 347° |
| 2026-05-05 22:07 | 10.91283 | -63.97138 | 54 ft | 14 kts | 349° |
| 2026-05-05 22:07 | 10.91373 | -63.97167 | 54 ft | 12 kts | 347° |
| 2026-05-05 22:07 | 10.91428 | -63.97157 | 56 ft | 6 kts | 8° |
| 2026-05-05 22:07 | 10.91451 | -63.97145 | 53 ft | 3 kts | 77° |
| 2026-05-05 22:08 | 10.91451 | -63.97142 | 56 ft | 0 kts | 78° |